logo tempoitalia

Diretta Meteo Norman-Max Westheimer, Stati Uniti (USA)lunedì 31 agosto ore 01:35

Mappa
Sereno 28 °C Sereno 24 Ore: T.min 25 T.max 39
Ponente Sud/Sud-Est Km/h 16.7 Punto di rugiada: 15 °C Umidità: 45% Visibilità: 10 Km
Il sole sorge alle: 07:01 Il sole tramonta alle: 19:58
31 Agosto 2026 01:35 tempo osservato: Sereno Sereno 28 45 1014 vento: Nord S/SE 16.7
31 Agosto 2026 01:15 tempo osservato: Sereno Sereno 29 42 1014 vento: Nord S/SE 16.7
31 Agosto 2026 00:55 tempo osservato: Sereno Sereno 29 42 1014 vento: Nord S 18.5
31 Agosto 2026 00:35 tempo osservato: Sereno Sereno 29 42 1014 vento: Nord S/SE 16.7
31 Agosto 2026 00:15 tempo osservato: Sereno Sereno 29 42 1014 vento: Nord S/SE 18.5
30 Agosto 2026 23:55 tempo osservato: Sereno Sereno 30 40 1014 vento: Nord S/SE 18.5
30 Agosto 2026 23:35 tempo osservato: Sereno Sereno 30 40 1013 vento: Nord S/SE 18.5
30 Agosto 2026 23:15 tempo osservato: Sereno Sereno 30 40 1014 vento: Nord S/SE 18.5
30 Agosto 2026 22:55 tempo osservato: Sereno Sereno 31 37 1014 vento: Nord S/SE 18.5
30 Agosto 2026 22:35 tempo osservato: Sereno Sereno 31 37 1013 vento: Nord S/SE 18.5
30 Agosto 2026 22:15 tempo osservato: Sereno Sereno 32 35 1013 vento: Nord S/SE 18.5
30 Agosto 2026 21:55 tempo osservato: Sereno Sereno 32 35 1013 vento: Nord S/SE 18.5
30 Agosto 2026 20:45 tempo osservato: Sereno Sereno 33 36 1012 vento: Nord SE 22.2
30 Agosto 2026 19:45 tempo osservato: Sereno Sereno 36 26 1011 vento: Nord SE 25.9
30 Agosto 2026 18:45 tempo osservato: Sereno Sereno 37 25 1011 vento: Nord S/SE 24
30 Agosto 2026 17:45 tempo osservato: Sereno Sereno 38 24 1011 vento: Nord S/SE 24
30 Agosto 2026 16:45 tempo osservato: Sereno Sereno 38 24 1011 vento: Nord S/SE 18.5
30 Agosto 2026 15:45 tempo osservato: Nuvoloso Nuvoloso 39 22 1012 vento: Nord S/SE 27.8
30 Agosto 2026 14:45 tempo osservato: Nuvoloso Nuvoloso 38 24 1013 vento: Nord S/SO 24
30 Agosto 2026 13:45 tempo osservato: Sereno Sereno 38 24 1014 vento: Nord S 22.2
30 Agosto 2026 12:45 tempo osservato: Sereno Sereno 37 27 1014 vento: Nord S/SE 27.8
30 Agosto 2026 11:45 tempo osservato: Sereno Sereno 36 30 1015 vento: Nord S 27.8
30 Agosto 2026 09:45 tempo osservato: Sereno Sereno 31 43 1016 vento: Nord S 22.2
30 Agosto 2026 08:45 tempo osservato: Sereno Sereno 27 54 1016 vento: Nord S/SE 18.5
30 Agosto 2026 07:45 tempo osservato: Sereno Sereno 25 57 1015 vento: Nord S/SE 14.8
30 Agosto 2026 07:35 tempo osservato: Sereno Sereno 25 57 1015 vento: Nord S/SE 14.8
30 Agosto 2026 07:15 tempo osservato: Sereno Sereno 25 57 1015 vento: Nord S/SE 14.8
30 Agosto 2026 06:55 tempo osservato: Sereno Sereno 25 57 1015 vento: Nord S/SE 14.8
30 Agosto 2026 06:46 tempo osservato: Sereno Sereno 25 57 1015 vento: Nord S/SE 14.8
30 Agosto 2026 06:35 tempo osservato: Sereno Sereno 25 57 1015 vento: Nord S/SE 16.7
30 Agosto 2026 06:15 tempo osservato: Sereno Sereno 25 57 1015 vento: Nord S/SE 11.1
30 Agosto 2026 05:55 tempo osservato: Sereno Sereno 25 57 1015 vento: Nord S/SE 11.1
30 Agosto 2026 05:35 tempo osservato: Sereno Sereno 26 54 1015 vento: Nord S/SE 13
30 Agosto 2026 05:15 tempo osservato: Sereno Sereno 26 54 1014 vento: Nord S/SE 16.7
30 Agosto 2026 04:55 tempo osservato: Sereno Sereno 26 54 1014 vento: Nord S/SE 16.7
30 Agosto 2026 04:35 tempo osservato: Sereno Sereno 26 54 1014 vento: Nord S/SE 16.7
30 Agosto 2026 04:15 tempo osservato: Sereno Sereno 27 50 1014 vento: Nord S/SE 18.5
30 Agosto 2026 03:55 tempo osservato: Sereno Sereno 27 50 1014 vento: Nord S/SE 16.7
30 Agosto 2026 03:35 tempo osservato: Sereno Sereno 27 47 1014 vento: Nord S/SE 20.3
30 Agosto 2026 03:15 tempo osservato: Sereno Sereno 28 45 1014 vento: Nord S/SE 24
30 Agosto 2026 02:55 tempo osservato: Sereno Sereno 28 45 1014 vento: Nord S/SE 22.2
30 Agosto 2026 02:35 tempo osservato: Sereno Sereno 28 45 1014 vento: Nord S/SE 20.3
30 Agosto 2026 02:15 tempo osservato: Sereno Sereno 28 45 1014 vento: Nord S/SE 20.3
30 Agosto 2026 01:55 tempo osservato: Sereno Sereno 28 45 1014 vento: Nord S/SE 24
30 Agosto 2026 01:35 tempo osservato: Sereno Sereno 29 42 1014 vento: Nord S/SE 20.3